首页
METAR-TAF:

METAR-TAF

机场 :

海洋縣, 新泽西州, 美国

纬度: 39-55-39N, 经度: 074-17-33W, 海拔: 25米

当前天气观测

该预报发布于17分钟前的15:56 UTC
风速6节,风向
温度 8°C
湿度 46%
气压 1025 hPa
能見度: 16.1公里
天空无云

METAR: KMJX 171556Z AUTO 01006KT 10SM CLR 08/M03 A3026 RMK AO2 SLP252 T00831033

时间: 11:13 (16:13 UTC)


TAF: 丢失

超过4000个机场的气象观测和天气预报(METAR&TAF报告)。

可查询的气象台以黄色和红色小点在地图上表示。

将鼠标移到小点上方,可查看气象台名称。

然后点击查看天气观测和预报。

如需切换地图:点击带黑十字的绿色按钮放大地图;点击带横线的绿色按钮缩小地图;或者点击绿色箭头查看邻近地区的地图。


METAR-TAF: